Time;durP1;ratioP1;P1;durP2;ratioP2;P2;SDS_P1;SDS_P2;PMS_P1;PMS_P2;Temp;Humidity;BMP_temperature;BMP_pressure;BME280_temperature;BME280_humidity;BME280_pressure;Samples;Min_cycle;Max_cycle;Signal;HPM_P1;HPM_P2
2022/07/19 00:00:42;;;;;;;;;;;;;;;22.64;45.80;100192.97;4995033;28;20053;-59
2022/07/19 00:03:27;;;;;;;5.65;2.97;;;;;;;22.62;45.93;100189.50;4994134;28;20403;-59
2022/07/19 00:06:13;;;;;;;7.57;2.70;;;;;;;22.64;46.08;100190.31;4994763;28;20042;-60
2022/07/19 00:08:58;;;;;;;6.38;3.15;;;;;;;22.64;45.90;100185.03;4994478;28;20053;-61
2022/07/19 00:11:42;;;;;;;8.52;3.85;;;;;;;22.63;46.08;100186.81;4979933;28;20130;-60
2022/07/19 00:14:31;;;;;;;5.13;3.17;;;;;;;22.61;46.10;100187.78;4994687;28;20057;-60
2022/07/19 00:17:16;;;;;;;6.28;3.50;;;;;;;22.60;45.99;100180.75;4994117;28;20129;-61
2022/07/19 00:20:00;;;;;;;11.70;4.78;;;;;;;22.58;45.96;100178.16;4979986;28;20105;-60
2022/07/19 00:22:44;;;;;;;9.40;4.00;;;;;;;22.58;46.09;100183.44;4980014;28;20053;-60
2022/07/19 00:25:31;;;;;;;6.35;3.90;;;;;;;22.59;46.13;100179.03;4994007;28;20049;-59
2022/07/19 00:28:18;;;;;;;6.30;4.05;;;;;;;22.59;46.30;100179.88;4993731;28;20057;-59
2022/07/19 00:31:04;;;;;;;8.10;4.35;;;;;;;22.56;46.54;100173.84;4994171;28;20126;-59
2022/07/19 00:33:54;;;;;;;4.93;3.17;;;;;;;22.55;46.36;100167.72;4979499;28;20140;-59
2022/07/19 00:36:40;;;;;;;6.05;3.63;;;;;;;22.54;46.36;100165.09;4979761;28;20524;-60
2022/07/19 00:39:33;;;;;;;9.02;3.92;;;;;;;22.53;46.34;100164.25;4980026;28;20433;-61
2022/07/19 00:42:22;;;;;;;7.88;4.10;;;;;;;22.51;46.27;100166.91;4994377;28;20113;-59
2022/07/19 00:45:07;;;;;;;9.35;3.95;;;;;;;22.49;46.49;100158.22;4979796;28;20398;-59
2022/07/19 00:47:51;;;;;;;8.57;4.35;;;;;;;22.48;46.81;100161.75;4994079;28;20115;-58
2022/07/19 00:50:35;;;;;;;9.73;3.90;;;;;;;22.47;46.68;100160.03;4994484;28;20049;-60
2022/07/19 00:53:20;;;;;;;7.43;4.10;;;;;;;22.45;46.76;100156.56;4994117;28;20105;-59
2022/07/19 00:56:10;;;;;;;8.07;4.45;;;;;;;22.45;46.93;100150.41;4979865;28;20056;-59
2022/07/19 00:58:54;;;;;;;12.02;4.43;;;;;;;22.43;46.92;100146.94;4979693;28;20150;-59
2022/07/19 01:01:39;;;;;;;14.48;4.65;;;;;;;22.42;47.01;100151.38;4979160;28;20529;-59
2022/07/19 01:04:23;;;;;;;7.43;3.85;;;;;;;22.41;46.95;100144.34;4994200;28;20049;-59
2022/07/19 01:07:10;;;;;;;8.45;3.78;;;;;;;22.39;47.09;100140.03;4993860;28;20512;-59
2022/07/19 01:09:57;;;;;;;7.95;3.80;;;;;;;22.36;47.02;100143.59;4994282;28;20053;-59
2022/07/19 01:12:42;;;;;;;6.50;3.65;;;;;;;22.35;46.89;100140.13;4994138;28;20085;-60
2022/07/19 01:15:29;;;;;;;5.88;2.70;;;;;;;22.33;47.13;100144.56;4979265;28;20108;-60
2022/07/19 01:18:15;;;;;;;7.32;3.13;;;;;;;22.31;46.88;100135.84;4979033;28;20509;-58
2022/07/19 01:21:03;;;;;;;5.43;3.10;;;;;;;22.30;47.13;100134.09;4978949;28;20418;-59
2022/07/19 01:24:16;;;;;;;6.00;3.47;;;;;;;22.31;47.10;100130.56;5131952;27;20204;-60
2022/07/19 01:27:03;;;;;;;7.00;2.90;;;;;;;22.33;47.23;100133.16;5116755;28;20095;-59
2022/07/19 01:29:47;;;;;;;7.55;3.40;;;;;;;22.34;47.12;100126.97;5131934;28;20509;-60
2022/07/19 01:32:36;;;;;;;4.97;3.33;;;;;;;22.35;47.23;100128.69;5116159;28;20471;-61
2022/07/19 01:35:20;;;;;;;6.75;3.22;;;;;;;22.35;47.23;100128.69;5131786;28;20092;-60
2022/07/19 01:38:07;;;;;;;4.93;2.95;;;;;;;22.32;47.30;100126.16;5131571;28;20088;-59
2022/07/19 01:40:51;;;;;;;4.90;3.13;;;;;;;22.29;47.43;100124.47;5115989;28;20122;-61
2022/07/19 01:43:36;;;;;;;;;;;;;;;22.27;47.32;100122.78;5131530;28;20474;-61
2022/07/19 01:46:22;;;;;;;5.23;2.53;;;;;;;22.23;47.46;100115.88;5131779;28;19922;-61
2022/07/19 01:49:07;;;;;;;3.83;2.58;;;;;;;22.23;47.37;100105.31;5116209;28;20425;-60
2022/07/19 01:51:51;;;;;;;6.50;2.35;;;;;;;22.20;47.45;100107.13;5131801;28;20138;-60
2022/07/19 01:54:35;;;;;;;3.95;2.50;;;;;;;22.20;47.31;100109.78;5131179;28;20051;-61
2022/07/19 01:57:26;;;;;;;7.88;2.85;;;;;;;22.20;47.64;100103.66;5131639;28;20093;-60
2022/07/19 02:00:11;;;;;;;6.93;2.60;;;;;;;22.19;47.69;100104.56;5130795;28;20092;-60
2022/07/19 02:02:56;;;;;;;4.25;2.47;;;;;;;22.18;47.50;100109.00;5115545;28;20045;-60
2022/07/19 02:05:40;;;;;;;5.60;2.55;;;;;;;22.16;47.47;100107.28;5115784;28;20073;-60
2022/07/19 02:08:51;;;;;;;4.20;2.25;;;;;;;22.15;47.79;100106.44;5111489;27;20681;-61
2022/07/19 02:11:35;;;;;;;;;;;;;;;22.12;47.59;100097.72;5110963;28;20058;-59
2022/07/19 02:14:19;;;;;;;3.85;2.72;;;;;;;22.10;47.34;100103.06;5111592;28;20275;-60
2022/07/19 02:17:03;;;;;;;4.78;2.42;;;;;;;22.10;47.86;100103.06;5110250;28;20070;-59
2022/07/19 02:19:52;;;;;;;4.53;2.50;;;;;;;22.09;47.71;100103.97;5111021;28;20043;-59
2022/07/19 02:22:42;;;;;;;6.15;2.90;;;;;;;22.09;47.81;100103.13;5109728;28;20572;-59
2022/07/19 02:25:29;;;;;;;8.43;2.70;;;;;;;22.08;47.83;100096.97;5111292;28;20050;-59
2022/07/19 02:28:15;;;;;;;3.90;2.30;;;;;;;22.08;47.84;100090.84;5109976;28;20055;-59
2022/07/19 02:31:00;;;;;;;4.47;2.90;;;;;;;22.08;47.92;100088.19;5110112;28;20448;-59
2022/07/19 02:33:46;;;;;;;7.43;2.58;;;;;;;22.08;47.69;100094.31;5110937;28;20096;-59
2022/07/19 02:36:30;;;;;;;5.30;2.60;;;;;;;22.09;47.94;100082.00;5110832;28;20089;-59
2022/07/19 02:39:17;;;;;;;11.30;2.95;;;;;;;22.11;47.62;100096.03;5110399;28;20116;-59
2022/07/19 02:42:06;;;;;;;8.27;2.88;;;;;;;22.11;47.73;100090.75;5110039;28;20089;-61
2022/07/19 02:44:52;;;;;;;4.93;2.70;;;;;;;22.11;47.86;100088.97;5109955;28;20131;-59
2022/07/19 02:47:38;;;;;;;6.30;2.20;;;;;;;22.11;47.95;100094.25;5110116;28;20050;-59
2022/07/19 02:50:25;;;;;;;3.78;2.45;;;;;;;22.11;47.92;100086.31;5110979;28;20542;-59
2022/07/19 02:53:14;;;;;;;4.30;2.50;;;;;;;22.12;47.80;100089.81;5110974;28;20092;-60
2022/07/19 02:56:01;;;;;;;4.65;2.70;;;;;;;22.11;47.95;100091.59;5110731;28;20066;-59
2022/07/19 02:58:45;;;;;;;5.80;2.50;;;;;;;22.12;47.85;100088.06;5109716;28;20051;-59
2022/07/19 03:01:29;;;;;;;7.72;2.35;;;;;;;22.13;47.95;100087.13;5109967;28;20071;-60
2022/07/19 03:04:13;;;;;;;3.25;2.58;;;;;;;22.13;47.71;100089.78;5109383;28;20054;-60
2022/07/19 03:06:59;;;;;;;9.38;3.22;;;;;;;22.13;47.91;100092.41;5109686;28;20582;-60
2022/07/19 03:09:47;;;;;;;3.35;2.35;;;;;;;22.13;48.10;100088.91;5110331;28;20109;-60
2022/07/19 03:12:31;;;;;;;3.83;2.60;;;;;;;22.12;47.98;100095.09;5110141;28;20089;-61
2022/07/19 03:15:15;;;;;;;6.25;2.67;;;;;;;22.11;48.08;100086.31;5109650;28;20047;-59
2022/07/19 03:18:01;;;;;;;5.95;2.85;;;;;;;22.11;48.15;100096.88;5109982;28;20146;-59
2022/07/19 03:20:48;;;;;;;3.50;2.17;;;;;;;22.11;47.95;100088.97;5095646;28;20051;-59
2022/07/19 03:23:34;;;;;;;5.82;2.70;;;;;;;22.11;47.92;100094.25;5095955;28;20553;-59
2022/07/19 03:26:18;;;;;;;3.58;2.60;;;;;;;22.11;47.86;100088.13;5095335;28;20066;-60
2022/07/19 03:29:05;;;;;;;6.78;2.75;;;;;;;22.12;47.65;100103.00;5096072;28;20069;-60
2022/07/19 03:31:55;;;;;;;3.85;2.70;;;;;;;22.13;47.81;100099.47;5095500;28;20058;-60
2022/07/19 03:34:39;;;;;;;5.57;2.67;;;;;;;22.14;47.61;100103.81;5095579;28;20128;-59
2022/07/19 03:37:23;;;;;;;4.78;2.92;;;;;;;22.14;47.51;100104.72;5095938;28;20541;-59
2022/07/19 03:40:10;;;;;;;4.05;2.53;;;;;;;22.14;47.40;100107.34;5095866;28;20456;-59
2022/07/19 03:42:54;;;;;;;4.65;2.35;;;;;;;22.15;47.35;100105.56;5094773;28;20050;-59
2022/07/19 03:45:38;;;;;;;5.32;3.03;;;;;;;22.17;47.38;100109.00;5096397;28;20125;-59
2022/07/19 03:48:22;;;;;;;8.35;3.15;;;;;;;22.16;46.97;100108.16;5095564;28;20090;-59
2022/07/19 03:51:06;;;;;;;8.80;3.08;;;;;;;22.15;47.07;100105.56;5095715;28;20047;-58
2022/07/19 03:53:53;;;;;;;5.03;2.53;;;;;;;22.16;47.26;100105.53;5095038;28;20050;-59
2022/07/19 03:56:42;;;;;;;6.32;2.80;;;;;;;22.16;47.38;100107.28;5096107;28;20051;-59
2022/07/19 03:59:27;;;;;;;8.43;3.10;;;;;;;22.16;47.32;100104.66;5095612;28;20172;-59
2022/07/19 04:02:13;;;;;;;3.75;2.50;;;;;;;22.14;47.71;100109.97;5094364;28;20090;-59
2022/07/19 04:04:58;;;;;;;3.42;2.72;;;;;;;22.15;47.71;100106.44;5095669;28;20069;-59
2022/07/19 04:07:47;;;;;;;5.00;2.25;;;;;;;22.13;47.63;100105.63;5094378;28;20501;-59
2022/07/19 04:10:31;;;;;;;4.22;2.28;;;;;;;22.13;47.86;100105.63;5095845;28;20055;-59
2022/07/19 04:13:15;;;;;;;3.88;2.58;;;;;;;22.13;47.65;100102.97;5095558;28;20059;-58
2022/07/19 04:16:08;;;;;;;4.78;2.60;;;;;;;22.12;47.37;100097.72;5094307;28;20063;-59
2022/07/19 04:18:52;;;;;;;4.03;3.00;;;;;;;22.11;47.99;100101.31;5094799;28;20112;-61
2022/07/19 04:21:36;;;;;;;5.15;2.80;;;;;;;22.10;48.01;100091.66;5093919;28;20063;-59
2022/07/19 04:24:23;;;;;;;5.80;2.75;;;;;;;22.09;48.22;100095.22;5095104;28;20039;-59
2022/07/19 04:27:07;;;;;;;5.75;2.97;;;;;;;22.08;48.19;100096.97;5094034;28;20042;-60
2022/07/19 04:29:53;;;;;;;6.75;2.85;;;;;;;22.08;48.10;100096.13;5095033;28;20051;-59
2022/07/19 04:32:40;;;;;;;7.07;2.58;;;;;;;22.08;47.94;100099.59;5094463;28;20141;-59
2022/07/19 04:35:27;;;;;;;2.78;2.20;;;;;;;22.07;47.86;100095.25;5094744;28;20100;-61
2022/07/19 04:38:14;;;;;;;5.10;2.60;;;;;;;22.09;47.87;100092.56;5094614;28;20047;-61
2022/07/19 04:41:01;;;;;;;4.22;2.40;;;;;;;22.11;47.94;100090.75;5095210;28;20089;-61
2022/07/19 04:43:45;;;;;;;5.88;3.40;;;;;;;22.11;47.93;100082.84;5093714;28;20552;-60
2022/07/19 04:46:50;;;;;;;5.15;2.60;;;;;;;22.13;47.88;100094.19;5111099;27;20258;-60
2022/07/19 04:49:40;;;;;;;9.70;2.80;;;;;;;22.13;47.82;100087.13;5111375;28;20514;-59
2022/07/19 04:52:24;;;;;;;4.07;2.33;;;;;;;22.13;47.72;100087.13;5109959;28;20176;-60
2022/07/19 04:55:09;;;;;;;7.13;2.65;;;;;;;22.14;47.62;100091.50;5111054;28;20464;-60
2022/07/19 04:57:56;;;;;;;4.85;2.63;;;;;;;22.14;47.55;100088.00;5110750;28;20050;-59
2022/07/19 05:00:40;;;;;;;3.67;2.38;;;;;;;22.15;47.43;100090.59;5110941;28;20066;-59
2022/07/19 05:03:28;;;;;;;5.93;2.75;;;;;;;22.15;47.74;100084.44;5110089;28;20081;-60
2022/07/19 05:06:12;;;;;;;6.43;2.50;;;;;;;22.16;47.52;100092.34;5109937;28;20069;-60
2022/07/19 05:08:56;;;;;;;4.18;2.20;;;;;;;22.16;47.65;100089.69;5110943;28;20402;-60
2022/07/19 05:11:40;;;;;;;6.20;2.63;;;;;;;22.17;47.57;100098.47;5110238;28;20125;-60
2022/07/19 05:14:29;;;;;;;3.47;2.38;;;;;;;22.19;47.56;100099.28;5110440;28;20418;-60
2022/07/19 05:19:03;;;;;;;4.15;2.65;;;;;;;22.21;47.39;100094.81;5132147;27;20143;-60
2022/07/19 05:21:47;;;;;;;;;;;;;;;22.20;47.35;100093.94;5132301;28;20519;-59
2022/07/19 05:24:31;;;;;;;4.53;2.80;;;;;;;22.20;47.51;100088.66;5132173;28;19922;-59
2022/07/19 05:27:15;;;;;;;13.35;2.85;;;;;;;22.23;47.46;100095.63;5131703;28;20177;-58
2022/07/19 05:29:59;;;;;;;5.55;2.88;;;;;;;22.25;47.38;100096.47;5116452;28;20099;-59
2022/07/19 05:32:49;;;;;;;3.70;2.70;;;;;;;22.27;47.35;100091.13;5132053;28;20403;-59
2022/07/19 05:35:33;;;;;;;4.78;3.00;;;;;;;22.28;47.14;100088.41;5116465;28;20047;-59
2022/07/19 05:38:19;;;;;;;8.35;2.33;;;;;;;22.30;47.42;100086.59;5131003;28;20047;-59
2022/07/19 05:41:05;;;;;;;5.78;2.70;;;;;;;22.31;47.08;100090.97;5115869;28;20093;-61
2022/07/19 05:43:51;;;;;;;5.05;2.83;;;;;;;22.32;46.97;100089.22;5115772;28;20092;-60
2022/07/19 05:46:40;;;;;;;6.13;2.63;;;;;;;22.33;47.11;100088.28;5116074;28;20053;-60
2022/07/19 05:49:24;;;;;;;5.00;3.10;;;;;;;22.34;47.08;100096.16;5115886;28;20071;-59
2022/07/19 05:52:09;;;;;;;5.35;2.45;;;;;;;22.36;46.97;100098.72;5131667;28;20078;-59
2022/07/19 05:54:53;;;;;;;5.53;2.42;;;;;;;22.37;46.66;100097.81;5116045;28;20054;-59
2022/07/19 05:57:39;;;;;;;4.57;3.13;;;;;;;22.37;46.87;100097.81;5115426;28;20038;-60
2022/07/19 06:01:54;;;;;;;4.28;2.40;;;;;;;22.39;46.84;100092.50;5085257;27;1979091;-58
2022/07/19 06:04:38;;;;;;;;;;;;;;;22.39;46.45;100100.44;5132553;28;20082;-59
2022/07/19 06:07:22;;;;;;;9.30;3.13;;;;;;;22.38;46.69;100102.19;5132055;28;19980;-59
2022/07/19 06:10:11;;;;;;;6.88;2.58;;;;;;;22.40;46.42;100099.53;5131480;28;20455;-59
2022/07/19 06:12:58;;;;;;;14.38;3.42;;;;;;;22.42;46.60;100097.72;5115681;28;20513;-59
2022/07/19 06:15:45;;;;;;;8.75;3.28;;;;;;;22.42;46.47;100090.66;5131642;28;20069;-59
2022/07/19 06:18:36;;;;;;;8.90;2.92;;;;;;;22.45;46.25;100108.16;5131523;28;20104;-59
2022/07/19 06:21:22;;;;;;;4.57;2.55;;;;;;;22.46;46.24;100105.50;5131834;28;20065;-59
2022/07/19 06:24:06;;;;;;;8.13;2.97;;;;;;;22.47;46.21;100101.94;5131295;28;20043;-59
2022/07/19 06:26:50;;;;;;;3.53;2.38;;;;;;;22.49;46.05;100113.31;5131928;28;20086;-59
2022/07/19 06:29:34;;;;;;;5.93;2.92;;;;;;;22.50;46.00;100107.09;5131405;28;20081;-60
2022/07/19 06:32:21;;;;;;;7.72;2.72;;;;;;;22.51;46.12;100108.81;5131711;28;20054;-59
2022/07/19 06:35:08;;;;;;;8.85;3.05;;;;;;;22.53;45.84;100110.56;5116039;28;20151;-59
2022/07/19 06:37:55;;;;;;;5.40;2.50;;;;;;;22.54;46.01;100101.72;5115417;28;20046;-59
2022/07/19 06:40:42;;;;;;;9.48;3.42;;;;;;;22.55;45.73;100106.09;5115663;28;20547;-58
2022/07/19 06:43:27;;;;;;;3.42;2.25;;;;;;;22.56;45.66;100110.47;5115841;28;20112;-60
2022/07/19 06:46:14;;;;;;;7.85;2.90;;;;;;;22.56;45.65;100110.47;5115546;28;20122;-61
2022/07/19 06:48:59;;;;;;;5.03;2.85;;;;;;;22.57;45.68;100106.91;5115907;28;20073;-58
2022/07/19 06:51:43;;;;;;;4.93;2.35;;;;;;;22.58;45.54;100104.22;5115967;28;20050;-59
2022/07/19 06:54:27;;;;;;;6.35;2.90;;;;;;;22.60;45.29;100112.09;5130821;28;20042;-60
2022/07/19 06:57:13;;;;;;;11.27;2.97;;;;;;;22.60;45.27;100105.03;5115485;28;20092;-61
2022/07/19 06:59:57;;;;;;;5.85;2.42;;;;;;;22.62;45.28;100116.41;5114922;27;20057;-59
2022/07/19 07:02:42;;;;;;;7.13;2.90;;;;;;;22.64;45.13;100116.38;5115635;28;20050;-61
2022/07/19 07:05:26;;;;;;;6.57;2.80;;;;;;;22.65;45.27;100104.91;5115168;28;20525;-61
2022/07/19 07:08:11;;;;;;;5.63;2.92;;;;;;;22.68;45.31;100106.56;5130753;28;20463;-61
2022/07/19 07:10:57;;;;;;;7.78;2.70;;;;;;;22.69;44.86;100109.13;5114665;28;20058;-61
2022/07/19 07:13:41;;;;;;;7.18;2.85;;;;;;;22.70;44.86;100095.03;5101216;28;20066;-59
2022/07/19 07:16:25;;;;;;;10.68;3.28;;;;;;;22.72;44.84;100106.41;5116781;28;20049;-59
2022/07/19 07:19:09;;;;;;;5.78;2.65;;;;;;;22.75;45.03;100103.66;5116922;28;20046;-59
2022/07/19 07:21:53;;;;;;;6.70;2.60;;;;;;;22.76;44.69;100100.09;5101112;28;20126;-59
2022/07/19 07:24:50;;;;;;;7.78;3.00;;;;;;;22.79;44.91;100096.50;5152501;27;20211;-60
2022/07/19 07:27:39;;;;;;;;;;;;;;;22.80;44.81;100101.75;5117190;28;20050;-60
2022/07/19 07:30:26;;;;;;;8.75;3.05;;;;;;;;;;5116146;27;19923;-61
2022/07/19 07:33:12;;;;;;;8.05;2.72;;;;;;;22.85;44.64;100106.84;5115921;28;20047;-59
2022/07/19 07:35:56;;;;;;;3.42;2.58;;;;;;;22.87;44.46;100098.88;5131704;28;20509;-59
2022/07/19 07:38:42;;;;;;;6.25;2.70;;;;;;;22.87;44.57;100097.09;5131161;28;20046;-59
2022/07/19 07:41:32;;;;;;;12.68;3.08;;;;;;;22.90;44.35;100099.63;5116066;28;20085;-59
2022/07/19 07:44:19;;;;;;;7.88;2.42;;;;;;;22.90;44.21;100094.34;5115641;28;20089;-59
2022/07/19 07:47:03;;;;;;;9.68;2.88;;;;;;;22.93;44.18;100104.81;5116008;28;20054;-61
2022/07/19 07:49:49;;;;;;;6.97;3.08;;;;;;;22.94;44.24;100101.25;5131026;28;20578;-61
2022/07/19 07:52:34;;;;;;;6.28;2.65;;;;;;;22.97;43.93;100100.28;5115754;28;20143;-60
2022/07/19 07:55:23;;;;;;;5.70;2.80;;;;;;;22.98;44.02;100091.44;5131588;28;20058;-61
2022/07/19 07:58:08;;;;;;;3.75;2.28;;;;;;;23.01;43.91;100093.13;5116086;28;20050;-61
2022/07/19 08:00:52;;;;;;;4.90;2.70;;;;;;;23.03;44.04;100089.50;5115812;28;20046;-59
2022/07/19 08:03:36;;;;;;;3.83;2.38;;;;;;;23.06;43.91;100084.09;5131087;27;20101;-61
2022/07/19 08:06:26;;;;;;;4.97;2.50;;;;;;;23.08;43.68;100087.56;5131152;28;20042;-61
2022/07/19 08:09:13;;;;;;;5.28;2.40;;;;;;;23.10;43.61;100075.16;5115739;28;20050;-59
2022/07/19 08:11:57;;;;;;;9.20;2.40;;;;;;;23.12;43.55;100070.66;5131275;27;20504;-62
2022/07/19 08:14:41;;;;;;;7.47;2.72;;;;;;;23.15;43.52;100071.47;5115882;28;20521;-61
2022/07/19 08:17:25;;;;;;;5.57;2.42;;;;;;;23.18;43.26;100066.06;5130702;28;20050;-61
2022/07/19 08:20:12;;;;;;;3.40;2.67;;;;;;;23.20;43.31;100069.53;5115247;28;20092;-59
2022/07/19 08:22:59;;;;;;;5.53;2.90;;;;;;;23.22;43.14;100063.28;5130541;28;20061;-59
2022/07/19 08:25:43;;;;;;;4.15;2.53;;;;;;;23.25;43.15;100065.84;5115066;28;20050;-59
2022/07/19 08:29:44;;;;;;;5.43;2.55;;;;;;;23.29;43.13;100066.56;5173608;27;20528;-59
2022/07/19 08:32:31;;;;;;;;;;;;;;;23.32;43.44;100071.75;5153050;27;20054;-59
2022/07/19 08:35:15;;;;;;;8.88;3.25;;;;;;;23.35;43.10;100062.88;5136692;27;20011;-60
2022/07/19 08:38:02;;;;;;;7.45;3.33;;;;;;;23.38;42.85;100060.09;5136917;27;20057;-59
2022/07/19 08:40:50;;;;;;;11.10;2.83;;;;;;;23.41;42.65;100063.50;5152685;27;20119;-59
2022/07/19 08:43:34;;;;;;;4.18;2.95;;;;;;;23.45;42.75;100058.06;5136712;27;20069;-61
2022/07/19 08:46:23;;;;;;;3.38;2.30;;;;;;;23.47;42.71;100058.88;5152430;27;20042;-61
2022/07/19 08:49:11;;;;;;;9.00;3.28;;;;;;;23.50;42.60;100056.13;5136640;27;20389;-60
2022/07/19 08:52:03;;;;;;;7.90;3.03;;;;;;;23.53;42.76;100058.66;5137327;27;20050;-59
2022/07/19 08:54:48;;;;;;;4.63;2.28;;;;;;;23.59;42.38;100060.22;5152019;27;20053;-59
2022/07/19 09:00:37;;;;;;;12.60;3.53;;;;;;;23.64;42.42;100052.97;5151902;27;20072;-61
2022/07/19 09:03:26;;;;;;;7.05;2.95;;;;;;;23.68;42.20;100044.84;5151784;27;20566;-60
2022/07/19 09:06:15;;;;;;;6.15;2.95;;;;;;;23.71;42.76;100041.22;5136609;27;20544;-61
2022/07/19 09:09:08;;;;;;;7.20;2.90;;;;;;;23.76;42.59;100046.31;5136301;27;20045;-59
2022/07/19 09:11:58;;;;;;;9.68;2.95;;;;;;;23.78;42.70;100040.06;5152021;27;20382;-61
2022/07/19 09:14:53;;;;;;;8.55;3.60;;;;;;;23.83;42.62;100038.09;5135833;27;20115;-59
2022/07/19 09:17:37;;;;;;;11.73;2.45;;;;;;;23.86;42.60;100043.28;5136108;27;20099;-59
2022/07/19 09:20:27;;;;;;;10.48;2.97;;;;;;;23.89;42.66;100044.97;5151145;27;20073;-60
2022/07/19 09:23:12;;;;;;;6.93;2.47;;;;;;;23.91;42.30;100044.88;5151527;27;20058;-59
2022/07/19 09:26:01;;;;;;;6.57;3.03;;;;;;;23.93;42.43;100033.31;5136014;27;20068;-59
2022/07/19 09:28:54;;;;;;;7.93;2.85;;;;;;;23.96;42.02;100037.63;5135581;27;20053;-60
2022/07/19 09:31:57;;;;;;;5.03;2.50;;;;;;;23.97;42.30;100037.59;5151508;27;20041;-61
2022/07/19 09:34:53;;;;;;;8.13;2.70;;;;;;;24.01;41.93;100030.38;5151669;27;20054;-59
2022/07/19 09:37:38;;;;;;;3.85;2.30;;;;;;;24.04;42.16;100032.91;5135862;27;20081;-59
2022/07/19 09:40:35;;;;;;;7.60;3.13;;;;;;;24.07;42.14;100024.84;5141494;27;20093;-59
2022/07/19 09:43:24;;;;;;;6.43;2.28;;;;;;;24.11;41.85;100028.22;5121519;27;20095;-60
2022/07/19 09:46:27;;;;;;;5.85;2.20;;;;;;;24.13;42.27;100027.25;5136818;27;20069;-59
2022/07/19 09:49:17;;;;;;;5.28;2.35;;;;;;;24.15;42.08;100025.38;5137176;27;20043;-59
2022/07/19 09:52:04;;;;;;;7.07;2.30;;;;;;;24.19;41.59;100023.50;5122019;27;20164;-59
2022/07/19 09:54:54;;;;;;;3.70;2.60;;;;;;;24.22;41.71;100023.34;5121911;27;20390;-61
2022/07/19 09:57:44;;;;;;;4.07;2.50;;;;;;;24.23;41.42;100022.41;5137476;27;20045;-60
2022/07/19 10:00:29;;;;;;;9.82;2.70;;;;;;;24.27;41.73;100009.94;5121611;27;20054;-60
2022/07/19 10:03:14;;;;;;;6.35;2.63;;;;;;;24.30;41.21;100015.97;5136791;27;20459;-60
2022/07/19 10:05:58;;;;;;;6.15;2.25;;;;;;;24.33;41.33;100010.53;5121741;27;20402;-60
2022/07/19 10:08:43;;;;;;;5.68;2.50;;;;;;;24.37;41.41;100002.47;5121529;27;20118;-61
2022/07/19 10:11:29;;;;;;;9.65;2.40;;;;;;;24.39;41.47;100001.47;5136401;27;20050;-59
2022/07/19 10:14:14;;;;;;;4.53;2.08;;;;;;;24.41;41.18;99996.97;5120948;27;20038;-60
2022/07/19 10:17:10;;;;;;;4.55;2.10;;;;;;;24.45;41.61;99998.56;5121397;27;20099;-60
2022/07/19 10:19:56;;;;;;;3.67;2.30;;;;;;;24.49;40.92;99994.00;5121157;27;20062;-59
2022/07/19 10:22:43;;;;;;;5.88;2.67;;;;;;;24.51;41.06;100001.88;5136746;27;20130;-59
2022/07/19 10:25:47;;;;;;;5.15;2.25;;;;;;;24.53;41.33;100000.88;5136193;27;20524;-59
2022/07/19 10:28:37;;;;;;;2.95;2.15;;;;;;;24.55;40.84;99995.53;5120496;27;20116;-59
2022/07/19 10:31:35;;;;;;;8.90;2.28;;;;;;;24.57;41.16;99991.03;5136364;27;20585;-60
2022/07/19 10:34:22;;;;;;;4.15;2.35;;;;;;;24.57;40.39;99981.28;5136869;27;20151;-59
2022/07/19 10:37:06;;;;;;;4.20;2.10;;;;;;;24.61;40.49;99974.94;5120934;27;20061;-59
2022/07/19 10:39:58;;;;;;;4.35;2.10;;;;;;;24.64;40.83;99979.22;5136450;27;20050;-60
2022/07/19 10:43:14;;;;;;;4.35;2.22;;;;;;;24.67;40.79;99972.94;5137021;27;20100;-59
2022/07/19 10:46:04;;;;;;;6.43;2.47;;;;;;;24.70;40.51;99972.81;5120565;27;20054;-59
2022/07/19 10:48:49;;;;;;;7.13;2.05;;;;;;;24.73;40.07;99967.38;5135642;27;20092;-59
2022/07/19 10:51:34;;;;;;;6.70;2.40;;;;;;;24.75;40.05;99958.47;5134772;27;20548;-59
2022/07/19 10:54:18;;;;;;;7.00;2.40;;;;;;;24.77;40.36;99971.63;5120123;27;20047;-59
2022/07/19 10:57:02;;;;;;;7.55;2.47;;;;;;;24.81;40.28;99964.41;5135664;27;20455;-59
2022/07/19 10:59:46;;;;;;;2.72;2.05;;;;;;;24.83;40.02;99960.78;5135661;27;20046;-60
2022/07/19 11:02:32;;;;;;;;;;;;;;;24.85;40.96;99948.28;5136445;27;20050;-59
2022/07/19 11:05:28;;;;;;;6.10;2.65;;;;;;;24.86;40.17;99957.97;5135573;27;20078;-61
2022/07/19 11:08:12;;;;;;;3.85;2.53;;;;;;;24.87;39.94;99948.25;5120286;27;20045;-60
2022/07/19 11:11:07;;;;;;;19.33;3.95;;;;;;;24.91;40.12;99941.88;5135599;27;20050;-59
2022/07/19 11:13:53;;;;;;;11.57;3.10;;;;;;;24.93;39.92;99932.91;5135781;27;20099;-59
2022/07/19 11:16:39;;;;;;;17.70;3.22;;;;;;;24.95;39.85;99932.84;5120114;27;20042;-60
2022/07/19 11:19:23;;;;;;;22.42;3.47;;;;;;;24.96;39.68;99928.41;5119928;27;20076;-59
2022/07/19 11:22:09;;;;;;;4.82;2.67;;;;;;;24.98;39.28;99930.06;5135170;27;20043;-60
2022/07/19 11:24:56;;;;;;;5.47;2.33;;;;;;;25.02;39.56;99920.16;5119906;27;20054;-61
2022/07/19 11:27:47;;;;;;;9.50;2.75;;;;;;;25.04;39.53;99918.31;5119330;27;20092;-61
2022/07/19 11:30:34;;;;;;;3.92;2.20;;;;;;;25.05;39.14;99914.72;5119531;27;20076;-59
2022/07/19 11:33:20;;;;;;;8.05;2.60;;;;;;;25.08;39.20;99915.44;5119755;27;20045;-59
2022/07/19 11:36:05;;;;;;;4.38;2.55;;;;;;;25.09;38.91;99909.19;5119508;27;20068;-59
2022/07/19 11:38:55;;;;;;;7.28;2.95;;;;;;;25.10;39.38;99907.44;5135111;27;20046;-60
2022/07/19 11:41:43;;;;;;;6.50;2.55;;;;;;;25.13;39.46;99903.75;5134987;27;20084;-59
2022/07/19 11:44:27;;;;;;;5.78;2.35;;;;;;;25.16;38.88;99904.47;5119785;27;20042;-59
2022/07/19 11:47:11;;;;;;;4.80;2.65;;;;;;;25.18;38.98;99907.06;5135256;27;20582;-60
2022/07/19 11:50:04;;;;;;;;;;;;;;;25.18;40.00;99897.31;5135400;27;20042;-59
2022/07/19 11:52:54;;;;;;;4.85;2.50;;;;;;;25.16;39.27;99891.22;5119483;27;20388;-60
2022/07/19 11:55:41;;;;;;;6.22;2.30;;;;;;;25.21;38.68;99891.03;5119083;27;20050;-59
2022/07/19 11:58:25;;;;;;;3.33;2.28;;;;;;;25.22;38.70;99887.44;5134935;27;20542;-60
2022/07/19 12:01:09;;;;;;;13.55;2.80;;;;;;;25.24;38.74;99880.25;5134847;27;20509;-61
2022/07/19 12:03:54;;;;;;;7.80;3.00;;;;;;;25.26;38.41;99875.72;5134761;27;20047;-61
2022/07/19 12:06:48;;;;;;;4.45;2.28;;;;;;;25.30;38.77;99863.19;5119173;27;20050;-61
2022/07/19 12:09:33;;;;;;;6.10;2.40;;;;;;;25.34;38.40;99873.59;5118778;27;20038;-59
2022/07/19 12:12:17;;;;;;;7.47;2.63;;;;;;;25.38;37.93;99875.13;5134883;27;20050;-61
2022/07/19 12:15:08;;;;;;;3.38;2.10;;;;;;;25.40;38.14;99864.47;5119028;27;20045;-60
2022/07/19 12:17:56;;;;;;;6.68;2.67;;;;;;;25.42;38.04;99862.63;5119129;27;20050;-59
2022/07/19 12:20:40;;;;;;;5.90;2.53;;;;;;;25.44;37.72;99849.28;5119259;27;20088;-60
2022/07/19 12:23:24;;;;;;;;;;;;;;;25.77;37.91;99851.19;5134714;27;20042;-61
2022/07/19 12:26:09;;;;;;;6.50;2.75;;;;;;;26.08;36.67;99839.84;5134439;27;19919;-61
2022/07/19 12:28:53;;;;;;;6.82;2.78;;;;;;;26.27;36.36;99839.81;5099128;28;20047;-63
2022/07/19 12:31:45;;;;;;;5.88;2.22;;;;;;;26.49;36.17;99833.31;5093257;28;20109;-61
2022/07/19 12:34:41;;;;;;;8.10;2.35;;;;;;;26.59;36.24;99831.91;5092390;28;20113;-61
2022/07/19 12:37:35;;;;;;;7.95;2.80;;;;;;;26.66;35.79;99835.09;5092000;28;20464;-61
2022/07/19 12:40:22;;;;;;;8.52;2.60;;;;;;;26.72;35.69;99834.72;5092426;28;20078;-61
2022/07/19 12:43:12;;;;;;;8.15;2.58;;;;;;;26.76;35.44;99835.44;5092499;28;20083;-61
2022/07/19 12:46:01;;;;;;;2.85;2.22;;;;;;;26.93;34.98;99839.00;5092621;28;20046;-61
2022/07/19 12:48:45;;;;;;;9.50;2.60;;;;;;;26.97;34.93;99829.88;5092534;28;20181;-63
2022/07/19 12:51:28;;;;;;;;;;;;;;;27.01;36.21;99829.66;5093967;28;20070;-62
2022/07/19 12:54:13;;;;;;;7.70;2.20;;;;;;;27.08;34.90;99818.66;5093607;28;19919;-61
2022/07/19 12:56:57;;;;;;;4.63;2.40;;;;;;;27.09;34.62;99815.06;5093056;28;20120;-61
2022/07/19 12:59:41;;;;;;;;;;;;;;;27.08;35.87;99805.34;5093766;28;20086;-62
2022/07/19 13:02:25;;;;;;;5.18;2.22;;;;;;;27.09;34.54;99807.06;5093208;28;19958;-62
2022/07/19 13:05:09;;;;;;;5.60;2.08;;;;;;;27.11;34.79;99799.88;5093221;28;20104;-61
2022/07/19 13:07:53;;;;;;;;;;;;;;;27.16;35.84;99809.31;5093485;28;20051;-60